Time;durP1;ratioP1;P1;durP2;ratioP2;P2;SDS_P1;SDS_P2;PMS_P1;PMS_P2;Temp;Humidity;BMP_temperature;BMP_pressure;BME280_temperature;BME280_humidity;BME280_pressure;Samples;Min_cycle;Max_cycle;Signal;HPM_P1;HPM_P2
2021/03/08 00:01:25;;;;;;;46.90;24.90;;;6.30;88.30;;;;;;5105078;28;20259;-79
2021/03/08 00:03:52;;;;;;;52.90;25.65;;;6.40;88.40;;;;;;5101446;28;20641;-78
2021/03/08 00:06:18;;;;;;;49.38;25.13;;;6.40;88.50;;;;;;5105193;28;20226;-78
2021/03/08 00:08:44;;;;;;;45.35;24.65;;;6.40;88.50;;;;;;5106003;27;20680;-78
2021/03/08 00:11:11;;;;;;;47.97;25.40;;;6.40;88.50;;;;;;5104926;28;20479;-78
2021/03/08 00:13:38;;;;;;;46.35;24.55;;;6.30;88.50;;;;;;5101494;28;20206;-78
2021/03/08 00:16:04;;;;;;;44.33;24.35;;;6.40;88.70;;;;;;5104677;28;20537;-79
2021/03/08 00:18:31;;;;;;;46.10;24.58;;;6.40;88.80;;;;;;5102550;28;20605;-78
2021/03/08 00:20:57;;;;;;;45.20;24.65;;;6.30;88.70;;;;;;5100559;28;20197;-78
2021/03/08 00:23:23;;;;;;;45.38;24.20;;;6.40;88.80;;;;;;5106073;27;20205;-78
2021/03/08 00:25:50;;;;;;;45.83;25.27;;;6.40;88.90;;;;;;5101457;28;20568;-78
2021/03/08 00:28:16;;;;;;;45.33;24.85;;;6.40;88.90;;;;;;5109186;28;20197;-78
2021/03/08 00:30:44;;;;;;;42.60;23.90;;;6.30;88.90;;;;;;5109561;28;20198;-78
2021/03/08 00:33:10;;;;;;;44.55;23.85;;;6.30;88.90;;;;;;5107996;28;20193;-78
2021/03/08 00:35:36;;;;;;;44.95;25.88;;;6.40;89.00;;;;;;5107368;28;20226;-79
2021/03/08 00:38:03;;;;;;;46.50;24.25;;;6.30;88.90;;;;;;5106004;28;20209;-78
2021/03/08 00:40:29;;;;;;;46.70;24.83;;;6.30;89.00;;;;;;5101852;28;20197;-76
2021/03/08 00:42:55;;;;;;;46.60;24.00;;;6.40;89.10;;;;;;5110327;28;20197;-78
2021/03/08 00:45:23;;;;;;;43.42;24.75;;;6.30;89.10;;;;;;5108581;28;20192;-79
2021/03/08 00:48:01;;;;;;;41.53;23.42;;;6.30;89.10;;;;;;5104894;28;20266;-78
2021/03/08 00:50:30;;;;;;;43.40;24.00;;;6.30;89.10;;;;;;5103959;28;20208;-79
2021/03/08 00:52:58;;;;;;;48.78;24.65;;;6.30;89.10;;;;;;5107287;28;20208;-79
2021/03/08 00:55:29;;;;;;;47.38;25.20;;;6.30;89.10;;;;;;5107091;28;20244;-79
2021/03/08 00:57:58;;;;;;;43.75;23.63;;;6.30;89.20;;;;;;5103249;28;20786;-78
2021/03/08 01:00:27;;;;;;;44.03;24.52;;;6.30;89.20;;;;;;5105241;28;20646;-78
2021/03/08 01:03:02;;;;;;;56.13;26.38;;;6.30;89.20;;;;;;5107801;28;20475;-78
2021/03/08 01:05:29;;;;;;;46.80;25.17;;;6.30;89.30;;;;;;5106786;28;20595;-78
2021/03/08 01:07:59;;;;;;;46.33;24.70;;;6.30;89.30;;;;;;5107836;28;20207;-77
2021/03/08 01:10:33;;;;;;;46.00;25.30;;;6.40;89.40;;;;;;5106578;28;20274;-78
2021/03/08 01:13:05;;;;;;;47.80;24.85;;;6.30;89.40;;;;;;5108869;28;20228;-78
2021/03/08 01:15:33;;;;;;;47.00;24.40;;;6.30;89.40;;;;;;5102865;28;20316;-79
2021/03/08 01:17:59;;;;;;;44.42;24.88;;;6.40;89.60;;;;;;5104869;28;20231;-78
2021/03/08 01:20:26;;;;;;;48.92;26.25;;;6.30;89.50;;;;;;5106147;28;20204;-78
2021/03/08 01:22:53;;;;;;;52.92;26.15;;;6.30;89.50;;;;;;5107374;28;20201;-78
2021/03/08 01:25:22;;;;;;;53.50;25.20;;;6.40;89.60;;;;;;5108388;28;20208;-78
2021/03/08 01:27:48;;;;;;;48.20;25.85;;;6.30;89.50;;;;;;5105664;28;20197;-78
2021/03/08 01:30:17;;;;;;;45.28;25.00;;;6.40;89.60;;;;;;5107543;28;20538;-79
2021/03/08 01:32:43;;;;;;;48.38;24.80;;;6.40;89.60;;;;;;5105747;28;21274;-79
2021/03/08 01:35:10;;;;;;;47.15;25.02;;;6.40;89.60;;;;;;5107801;28;20217;-79
2021/03/08 01:37:38;;;;;;;49.78;25.33;;;6.30;89.40;;;;;;5104870;28;20696;-79
2021/03/08 01:40:07;;;;;;;49.00;24.98;;;6.40;89.60;;;;;;5108691;28;20201;-77
2021/03/08 01:42:34;;;;;;;50.08;25.30;;;6.40;89.60;;;;;;5106931;28;20204;-78
2021/03/08 01:45:00;;;;;;;45.83;24.80;;;6.40;89.60;;;;;;5107394;28;20235;-78
2021/03/08 01:47:26;;;;;;;45.22;25.75;;;6.30;89.60;;;;;;5106357;28;20205;-78
2021/03/08 01:49:53;;;;;;;44.97;25.85;;;6.40;89.70;;;;;;5104830;28;20198;-78
2021/03/08 01:52:19;;;;;;;50.33;25.63;;;6.40;89.70;;;;;;5103278;28;20224;-78
2021/03/08 01:54:47;;;;;;;48.83;25.05;;;6.40;89.70;;;;;;5108157;28;20266;-79
2021/03/08 01:57:14;;;;;;;47.45;25.95;;;6.40;89.60;;;;;;5101304;28;20212;-78
2021/03/08 01:59:40;;;;;;;49.17;25.25;;;6.30;89.60;;;;;;5105893;28;20201;-79
2021/03/08 02:02:08;;;;;;;46.83;26.25;;;6.40;89.60;;;;;;5107238;28;20242;-78
2021/03/08 02:04:34;;;;;;;50.15;26.15;;;6.30;89.60;;;;;;5104754;28;20225;-79
2021/03/08 02:07:00;;;;;;;47.47;26.20;;;6.40;89.70;;;;;;5104570;28;20255;-78
2021/03/08 02:09:27;;;;;;;48.65;26.05;;;6.30;89.60;;;;;;5107143;28;20703;-78
2021/03/08 02:12:13;;;;;;;52.47;25.40;;;6.40;89.70;;;;;;5107315;28;20607;-78
2021/03/08 02:14:58;;;;;;;44.90;25.73;;;6.30;89.70;;;;;;5107040;28;20711;-78
2021/03/08 02:17:31;;;;;;;48.33;24.23;;;6.30;89.70;;;;;;5106956;28;20669;-79
2021/03/08 02:20:42;;;;;;;47.85;25.40;;;6.30;89.70;;;;;;5103266;28;20212;-78
2021/03/08 02:23:44;;;;;;;48.97;26.30;;;6.40;89.70;;;;;;5104916;28;20646;-78
2021/03/08 02:26:26;;;;;;;47.97;26.25;;;6.30;89.70;;;;;;5104303;28;20197;-78
2021/03/08 02:29:17;;;;;;;45.15;24.48;;;6.30;90.20;;;;;;5106511;28;20205;-78
2021/03/08 02:31:47;;;;;;;48.22;25.33;;;6.30;89.80;;;;;;5095100;28;20219;-78
2021/03/08 02:34:21;;;;;;;48.97;25.05;;;6.30;89.90;;;;;;5106734;28;20217;-78
2021/03/08 02:36:53;;;;;;;55.00;26.58;;;6.30;89.90;;;;;;5104712;28;20208;-78
2021/03/08 02:39:26;;;;;;;48.33;25.67;;;6.30;90.00;;;;;;5106245;28;20220;-78
2021/03/08 02:41:55;;;;;;;57.20;27.88;;;6.30;90.00;;;;;;5106085;28;20206;-79
2021/03/08 02:44:28;;;;;;;56.53;26.42;;;6.30;90.00;;;;;;5106930;28;20712;-79
2021/03/08 02:46:56;;;;;;;49.17;26.25;;;6.30;90.10;;;;;;5104748;28;20202;-78
2021/03/08 02:49:26;;;;;;;48.53;25.20;;;6.30;90.10;;;;;;5106922;28;20356;-78
2021/03/08 02:51:57;;;;;;;50.17;26.48;;;6.30;90.10;;;;;;5105093;28;20570;-78
2021/03/08 02:54:26;;;;;;;48.83;26.35;;;6.30;90.20;;;;;;5103983;28;20771;-79
2021/03/08 02:56:57;;;;;;;48.67;25.35;;;6.20;90.10;;;;;;5105699;28;20221;-78
2021/03/08 02:59:26;;;;;;;48.00;25.35;;;6.30;90.20;;;;;;5103977;28;20193;-79
2021/03/08 03:01:55;;;;;;;45.50;25.40;;;6.30;90.20;;;;;;5105226;28;20205;-79
2021/03/08 03:04:23;;;;;;;52.03;26.83;;;6.30;90.30;;;;;;5110817;28;20229;-78
2021/03/08 03:06:50;;;;;;;47.78;25.75;;;6.30;90.30;;;;;;5107283;28;20204;-79
2021/03/08 03:09:21;;;;;;;48.03;26.13;;;6.30;90.30;;;;;;5109466;28;20198;-79
2021/03/08 03:11:53;;;;;;;47.65;25.98;;;6.30;90.30;;;;;;5107860;28;20569;-79
2021/03/08 03:14:21;;;;;;;46.33;25.20;;;6.20;90.30;;;;;;5107286;28;20221;-78
2021/03/08 03:16:50;;;;;;;52.65;25.98;;;6.30;90.40;;;;;;5107434;28;22826;-78
2021/03/08 03:19:20;;;;;;;51.92;26.95;;;6.30;90.40;;;;;;5108010;28;20723;-78
2021/03/08 03:21:48;;;;;;;50.28;26.15;;;6.30;90.50;;;;;;5108183;28;20197;-78
2021/03/08 03:24:15;;;;;;;47.47;26.10;;;6.30;90.50;;;;;;5109677;28;20239;-79
2021/03/08 03:26:42;;;;;;;50.13;26.42;;;6.30;90.50;;;;;;5108828;28;20262;-77
2021/03/08 03:29:10;;;;;;;49.15;25.38;;;6.30;90.50;;;;;;5109543;27;20197;-78
2021/03/08 03:31:40;;;;;;;48.05;26.23;;;6.30;90.60;;;;;;5108293;28;20205;-79
2021/03/08 03:34:08;;;;;;;50.50;25.90;;;6.30;90.60;;;;;;5111047;27;20228;-78
2021/03/08 03:36:39;;;;;;;50.47;26.05;;;6.30;90.60;;;;;;5108173;28;20212;-78
2021/03/08 03:39:08;;;;;;;48.08;24.73;;;6.30;90.60;;;;;;5108946;28;20304;-78
2021/03/08 03:41:34;;;;;;;50.22;25.58;;;6.30;90.60;;;;;;5107016;28;20200;-78
2021/03/08 03:44:01;;;;;;;44.40;25.00;;;6.30;90.60;;;;;;5107771;28;20712;-78
2021/03/08 03:46:28;;;;;;;45.92;24.83;;;6.30;90.60;;;;;;5109966;28;20658;-78
2021/03/08 03:48:55;;;;;;;49.58;25.65;;;6.30;90.60;;;;;;5107731;27;20197;-78
2021/03/08 03:51:21;;;;;;;45.65;25.85;;;6.30;90.60;;;;;;5107279;28;20197;-78
2021/03/08 03:53:49;;;;;;;45.42;24.70;;;6.30;90.60;;;;;;5106287;28;20650;-78
2021/03/08 03:56:17;;;;;;;46.53;24.73;;;6.30;90.60;;;;;;5111202;27;20233;-78
2021/03/08 03:58:50;;;;;;;45.38;25.60;;;6.30;90.60;;;;;;5107843;28;20197;-78
2021/03/08 04:01:21;;;;;;;48.70;24.67;;;6.30;90.70;;;;;;5107559;28;20197;-77
2021/03/08 04:03:55;;;;;;;48.00;24.83;;;6.30;90.70;;;;;;5106969;28;20212;-78
2021/03/08 04:06:24;;;;;;;49.70;24.80;;;6.30;90.70;;;;;;5107420;28;20845;-78
2021/03/08 04:08:55;;;;;;;44.03;25.33;;;6.30;90.70;;;;;;5109619;28;20197;-77
2021/03/08 04:11:21;;;;;;;46.75;24.58;;;6.30;90.70;;;;;;5105552;27;20200;-77
2021/03/08 04:13:48;;;;;;;40.00;23.02;;;6.30;90.80;;;;;;5107655;28;20207;-78
2021/03/08 04:16:16;;;;;;;46.05;23.65;;;6.30;90.80;;;;;;5107542;28;20196;-78
2021/03/08 04:18:47;;;;;;;41.63;22.88;;;6.30;91.20;;;;;;5108210;28;20212;-78
2021/03/08 04:21:15;;;;;;;38.30;22.45;;;6.30;90.90;;;;;;5105787;28;20672;-77
2021/03/08 04:23:42;;;;;;;43.08;22.23;;;6.30;90.90;;;;;;5108981;28;20665;-78
2021/03/08 04:26:11;;;;;;;39.40;22.05;;;6.30;90.90;;;;;;5106250;28;20193;-77
2021/03/08 04:28:41;;;;;;;38.25;21.35;;;6.30;90.90;;;;;;5109317;28;20576;-78
2021/03/08 04:31:07;;;;;;;43.65;21.85;;;6.30;90.80;;;;;;5106834;28;20286;-78
2021/03/08 04:33:34;;;;;;;36.38;21.80;;;6.30;90.80;;;;;;5106466;28;20209;-78
2021/03/08 04:36:01;;;;;;;39.55;22.25;;;6.30;90.80;;;;;;5106616;27;20232;-77
2021/03/08 04:38:29;;;;;;;38.25;22.05;;;6.30;90.80;;;;;;5106977;28;20201;-78
2021/03/08 04:40:56;;;;;;;40.80;21.67;;;6.30;90.70;;;;;;5105036;28;20213;-78
2021/03/08 04:43:26;;;;;;;43.22;22.33;;;6.30;90.70;;;;;;5108643;28;20265;-78
2021/03/08 04:45:55;;;;;;;45.72;24.15;;;6.30;90.70;;;;;;5105761;28;20189;-77
2021/03/08 04:48:22;;;;;;;40.53;23.75;;;6.30;90.70;;;;;;5107862;28;20201;-77
2021/03/08 04:50:50;;;;;;;42.30;24.20;;;6.30;90.70;;;;;;5107399;28;20255;-81
2021/03/08 04:53:17;;;;;;;46.40;25.52;;;6.40;90.70;;;;;;5107219;28;20197;-78
2021/03/08 04:55:46;;;;;;;48.47;25.40;;;6.30;90.70;;;;;;5106700;28;20213;-78
2021/03/08 04:58:12;;;;;;;51.45;26.15;;;6.30;90.70;;;;;;5105975;28;20201;-77
2021/03/08 05:00:40;;;;;;;52.55;25.52;;;6.40;90.70;;;;;;5108693;28;20213;-78
2021/03/08 05:03:06;;;;;;;50.55;26.65;;;6.30;90.80;;;;;;5105185;28;20254;-77
2021/03/08 05:05:34;;;;;;;49.05;26.83;;;6.30;90.80;;;;;;5106831;28;20588;-78
2021/03/08 05:08:04;;;;;;;49.85;26.83;;;6.40;90.90;;;;;;5109140;28;20246;-77
2021/03/08 05:10:32;;;;;;;54.80;28.15;;;6.40;90.90;;;;;;5106803;28;20251;-78
2021/03/08 05:13:00;;;;;;;54.38;27.40;;;6.30;90.90;;;;;;5107261;28;20201;-77
2021/03/08 05:15:28;;;;;;;54.17;27.52;;;6.40;91.00;;;;;;5106212;28;20217;-78
2021/03/08 05:17:57;;;;;;;46.63;25.20;;;6.40;91.10;;;;;;5107603;28;20292;-78
2021/03/08 05:20:24;;;;;;;49.78;26.42;;;6.30;91.10;;;;;;5105221;28;20220;-78
2021/03/08 05:22:51;;;;;;;52.05;26.65;;;6.40;91.10;;;;;;5107599;28;20201;-77
2021/03/08 05:25:19;;;;;;;47.67;25.38;;;6.30;91.10;;;;;;5104978;28;21098;-78
2021/03/08 05:27:47;;;;;;;50.70;26.27;;;6.30;91.20;;;;;;5108457;28;20205;-77
2021/03/08 05:30:17;;;;;;;45.63;25.60;;;6.40;91.20;;;;;;5106027;28;20656;-78
2021/03/08 05:32:48;;;;;;;45.78;25.70;;;6.40;91.20;;;;;;5108526;28;20642;-78
2021/03/08 05:35:16;;;;;;;49.80;24.80;;;6.40;91.30;;;;;;5105496;28;21037;-77
2021/03/08 05:37:43;;;;;;;46.88;23.83;;;6.40;91.30;;;;;;5106959;28;20212;-78
2021/03/08 05:40:22;;;;;;;46.03;24.38;;;6.40;91.40;;;;;;5105034;28;20202;-77
2021/03/08 05:42:56;;;;;;;45.38;23.67;;;6.40;91.40;;;;;;5107674;28;20200;-78
2021/03/08 05:45:27;;;;;;;42.17;22.55;;;6.40;91.40;;;;;;5105326;28;20381;-78
2021/03/08 05:48:19;;;;;;;44.13;23.92;;;6.40;91.50;;;;;;5108332;28;20207;-77
2021/03/08 05:51:24;;;;;;;41.40;22.02;;;6.40;91.50;;;;;;5105228;28;20600;-78
2021/03/08 05:54:17;;;;;;;48.72;22.60;;;6.40;91.50;;;;;;5106794;28;20205;-78
2021/03/08 05:57:05;;;;;;;44.05;22.35;;;6.40;91.60;;;;;;5104427;28;20640;-78
2021/03/08 05:59:43;;;;;;;41.63;23.02;;;6.40;91.50;;;;;;5105214;28;20203;-79
2021/03/08 06:02:43;;;;;;;49.40;23.63;;;6.40;91.60;;;;;;5108454;28;20216;-79
2021/03/08 06:06:02;;;;;;;42.10;22.10;;;6.40;91.90;;;;;;5106796;28;20331;-78
2021/03/08 06:09:17;;;;;;;37.10;20.95;;;6.40;91.60;;;;;;5106645;28;20197;-77
2021/03/08 06:11:48;;;;;;;47.90;23.05;;;6.40;91.60;;;;;;5106090;28;20197;-81
2021/03/08 06:14:17;;;;;;;41.40;22.52;;;6.40;91.60;;;;;;5103737;28;20283;-80
2021/03/08 06:16:45;;;;;;;44.00;22.42;;;6.40;91.60;;;;;;5111581;28;20193;-78
2021/03/08 06:19:12;;;;;;;46.30;23.88;;;6.40;91.70;;;;;;5110093;28;20661;-79
2021/03/08 06:21:38;;;;;;;43.70;22.55;;;6.40;91.70;;;;;;5108358;28;20205;-81
2021/03/08 06:24:07;;;;;;;40.90;21.90;;;6.40;91.70;;;;;;5109498;28;20201;-79
2021/03/08 06:26:33;;;;;;;45.35;22.38;;;6.40;91.70;;;;;;5107568;28;20576;-79
2021/03/08 06:29:03;;;;;;;46.97;22.17;;;6.40;91.70;;;;;;5110685;28;20193;-80
2021/03/08 06:31:30;;;;;;;38.72;20.73;;;6.40;91.80;;;;;;5111712;28;20197;-79
2021/03/08 06:33:56;;;;;;;41.05;21.38;;;6.40;91.80;;;;;;5111342;28;20261;-79
2021/03/08 06:36:23;;;;;;;50.20;24.05;;;6.40;91.80;;;;;;5112074;28;20212;-78
2021/03/08 06:38:50;;;;;;;43.83;22.42;;;6.40;91.80;;;;;;5113728;27;20207;-80
2021/03/08 06:41:17;;;;;;;34.80;19.50;;;6.50;91.90;;;;;;5113415;28;20205;-79
2021/03/08 06:43:44;;;;;;;38.80;20.38;;;6.40;91.80;;;;;;5112950;28;20551;-80
2021/03/08 06:46:13;;;;;;;38.88;19.77;;;6.50;91.90;;;;;;5112832;28;20292;-79
2021/03/08 06:48:41;;;;;;;41.40;21.20;;;6.40;91.80;;;;;;5114399;28;20205;-82
2021/03/08 06:51:09;;;;;;;39.70;20.38;;;6.50;91.90;;;;;;5112594;28;20219;-80
2021/03/08 06:53:36;;;;;;;39.47;20.00;;;6.50;92.30;;;;;;5112896;28;20292;-80
2021/03/08 06:56:20;;;;;;;44.38;20.10;;;6.50;91.90;;;;;;5114366;28;20209;-83
2021/03/08 06:59:04;;;;;;;36.47;19.52;;;6.50;91.90;;;;;;5111933;28;20204;-81
2021/03/08 07:01:31;;;;;;;40.80;19.35;;;6.50;91.90;;;;;;5113022;28;20197;-80
2021/03/08 07:03:59;;;;;;;37.97;18.30;;;6.40;91.90;;;;;;5110638;28;20206;-81
2021/03/08 07:06:26;;;;;;;44.80;20.20;;;6.50;91.90;;;;;;5112382;28;20340;-80
2021/03/08 07:09:02;;;;;;;43.85;21.02;;;6.40;91.90;;;;;;5114165;27;20206;-80
2021/03/08 07:11:29;;;;;;;36.85;18.92;;;6.40;91.90;;;;;;5113569;28;20201;-79
2021/03/08 07:13:56;;;;;;;39.45;18.95;;;6.40;91.90;;;;;;5112182;28;20201;-82
2021/03/08 07:16:33;;;;;;;39.42;19.85;;;6.40;91.90;;;;;;5113686;27;20213;-77
2021/03/08 07:19:00;;;;;;;39.95;21.52;;;6.40;91.90;;;;;;5111078;28;20193;-78
2021/03/08 07:21:26;;;;;;;39.60;19.48;;;6.40;92.00;;;;;;5111524;28;20231;-84
2021/03/08 07:23:54;;;;;;;41.20;19.80;;;6.40;92.00;;;;;;5111688;28;20258;-79
2021/03/08 07:26:22;;;;;;;40.50;19.30;;;6.40;92.10;;;;;;5110832;28;20254;-78
2021/03/08 07:29:09;;;;;;;43.40;19.30;;;6.40;92.10;;;;;;5110838;28;20201;-77
2021/03/08 07:31:37;;;;;;;44.60;19.23;;;6.40;92.20;;;;;;5111425;28;20208;-76
2021/03/08 07:34:04;;;;;;;41.58;19.45;;;6.40;92.20;;;;;;5112904;28;20201;-78
2021/03/08 07:36:33;;;;;;;37.80;19.33;;;6.30;92.20;;;;;;5112755;28;20204;-73
2021/03/08 07:39:09;;;;;;;45.08;19.50;;;6.40;92.30;;;;;;5112066;28;20211;-78
2021/03/08 07:41:36;;;;;;;44.00;18.55;;;6.40;92.30;;;;;;5113174;28;20212;-79
2021/03/08 07:44:08;;;;;;;38.88;18.80;;;6.40;92.40;;;;;;5113346;28;20201;-78
2021/03/08 07:46:37;;;;;;;38.90;18.35;;;6.40;92.40;;;;;;5110866;28;20541;-81
2021/03/08 07:49:06;;;;;;;42.95;19.52;;;6.40;92.50;;;;;;5111588;27;20223;-75
2021/03/08 07:51:35;;;;;;;39.03;18.17;;;6.40;92.50;;;;;;5111455;28;20720;-77
2021/03/08 07:54:04;;;;;;;38.03;17.33;;;6.40;92.60;;;;;;5108968;28;20208;-76
2021/03/08 07:56:31;;;;;;;42.92;18.70;;;6.40;92.70;;;;;;5109061;28;20626;-75
2021/03/08 07:58:57;;;;;;;49.22;18.80;;;6.40;92.70;;;;;;5103901;28;20220;-77
2021/03/08 08:01:25;;;;;;;33.60;16.90;;;6.50;92.90;;;;;;5104767;28;20201;-75
2021/03/08 08:03:52;;;;;;;31.77;16.25;;;6.50;93.00;;;;;;5104596;28;20205;-76
2021/03/08 08:06:20;;;;;;;34.22;15.30;;;6.60;93.00;;;;;;5104159;27;20202;-76
2021/03/08 08:08:49;;;;;;;38.30;16.40;;;6.60;93.00;;;;;;5107469;28;20197;-76
2021/03/08 08:11:19;;;;;;;34.85;16.33;;;6.70;93.10;;;;;;5106652;28;20272;-76
2021/03/08 08:13:49;;;;;;;36.33;17.27;;;6.70;93.10;;;;;;5108124;28;20201;-75
2021/03/08 08:16:18;;;;;;;35.22;15.90;;;6.80;93.20;;;;;;5103360;28;20244;-75
2021/03/08 08:18:46;;;;;;;32.78;16.58;;;6.90;93.20;;;;;;5104894;27;20695;-77
2021/03/08 08:21:14;;;;;;;35.50;17.88;;;6.90;93.20;;;;;;5105603;28;20258;-79
2021/03/08 08:23:43;;;;;;;36.25;17.77;;;6.90;93.20;;;;;;5107193;28;20201;-76
2021/03/08 08:26:12;;;;;;;32.30;18.40;;;7.00;93.20;;;;;;5102463;28;20202;-75
2021/03/08 08:28:40;;;;;;;33.97;16.73;;;7.10;93.10;;;;;;5104584;27;20204;-75
2021/03/08 08:31:06;;;;;;;33.58;17.50;;;7.10;93.10;;;;;;5107944;28;20198;-76
2021/03/08 08:33:34;;;;;;;30.67;17.63;;;7.10;93.00;;;;;;5106118;27;20216;-76
2021/03/08 08:36:28;;;;;;;35.95;18.20;;;7.10;93.30;;;;;;5106898;28;20240;-76
2021/03/08 08:39:16;;;;;;;41.92;17.90;;;7.20;92.90;;;;;;5083549;28;20215;-77
2021/03/08 08:41:43;;;;;;;39.67;17.67;;;7.20;92.90;;;;;;5104451;28;20343;-76
2021/03/08 08:44:39;;;;;;;33.50;17.38;;;7.30;92.90;;;;;;5107685;28;20190;-76
2021/03/08 08:47:29;;;;;;;36.70;18.45;;;7.30;92.80;;;;;;5103815;27;20551;-75
2021/03/08 08:49:58;;;;;;;37.97;18.83;;;7.40;92.90;;;;;;5106233;28;20204;-75
2021/03/08 08:52:44;;;;;;;48.72;19.95;;;7.40;92.80;;;;;;5105420;28;20205;-79
2021/03/08 08:55:11;;;;;;;34.03;18.20;;;7.50;92.70;;;;;;5103059;28;20221;-80
2021/03/08 08:57:38;;;;;;;31.38;18.17;;;7.50;92.70;;;;;;5107205;28;20205;-79
2021/03/08 09:00:21;;;;;;;33.65;18.25;;;7.60;92.60;;;;;;5107319;28;20205;-78
2021/03/08 09:02:48;;;;;;;32.17;18.67;;;7.60;92.50;;;;;;5107718;28;20212;-78
2021/03/08 09:05:42;;;;;;;38.13;19.80;;;7.60;92.40;;;;;;5106497;27;20728;-77
2021/03/08 09:08:31;;;;;;;35.50;18.73;;;7.60;92.30;;;;;;5105958;28;20235;-78
2021/03/08 09:10:59;;;;;;;35.17;18.15;;;7.60;92.30;;;;;;5105225;28;20201;-76
2021/03/08 09:13:27;;;;;;;38.63;19.20;;;7.70;92.20;;;;;;5103747;28;20290;-77
2021/03/08 09:15:55;;;;;;;32.97;18.00;;;7.70;92.10;;;;;;5103667;28;20244;-76
2021/03/08 09:18:36;;;;;;;33.10;18.10;;;7.70;92.00;;;;;;5105698;28;20284;-76
2021/03/08 09:21:20;;;;;;;43.70;19.17;;;7.70;91.90;;;;;;5103311;28;20247;-76
2021/03/08 09:23:48;;;;;;;34.97;18.65;;;7.80;91.90;;;;;;5105715;28;20196;-77
2021/03/08 09:26:15;;;;;;;39.53;19.27;;;7.80;91.80;;;;;;5104340;28;20192;-77
2021/03/08 09:28:50;;;;;;;34.90;19.20;;;7.90;91.80;;;;;;5105881;28;20211;-76
2021/03/08 09:31:23;;;;;;;32.05;18.10;;;7.90;91.70;;;;;;5104084;28;20598;-77
2021/03/08 09:33:50;;;;;;;39.20;19.48;;;7.90;91.60;;;;;;5107415;28;20227;-77
2021/03/08 09:36:19;;;;;;;37.25;17.90;;;8.00;91.50;;;;;;5103634;28;20719;-77
2021/03/08 09:38:46;;;;;;;35.35;19.42;;;8.00;91.40;;;;;;5104815;28;20224;-77
2021/03/08 09:41:13;;;;;;;31.90;18.33;;;8.00;91.30;;;;;;5105713;28;20212;-77
2021/03/08 09:43:39;;;;;;;31.63;18.23;;;8.00;91.10;;;;;;5106003;28;20213;-76
2021/03/08 09:46:07;;;;;;;33.65;18.85;;;8.10;91.10;;;;;;5104652;28;20658;-77
2021/03/08 09:48:37;;;;;;;43.25;22.88;;;8.10;91.00;;;;;;5104047;28;20990;-77
2021/03/08 09:51:09;;;;;;;32.08;17.73;;;8.20;91.00;;;;;;5105009;28;20781;-77
2021/03/08 09:53:37;;;;;;;36.35;17.35;;;8.20;90.90;;;;;;5105294;28;20201;-77
2021/03/08 09:56:10;;;;;;;34.63;17.80;;;8.30;90.70;;;;;;5100509;28;20213;-77
2021/03/08 09:58:37;;;;;;;36.67;17.80;;;8.30;90.70;;;;;;5104726;28;20696;-77
2021/03/08 10:01:17;;;;;;;25.77;16.05;;;8.40;90.60;;;;;;5104723;28;20573;-78
2021/03/08 10:03:44;;;;;;;32.83;18.20;;;8.40;90.50;;;;;;5105490;28;20203;-77
2021/03/08 10:06:22;;;;;;;33.67;17.73;;;8.40;90.70;;;;;;5100627;28;20313;-77
2021/03/08 10:08:49;;;;;;;32.60;18.80;;;8.50;90.20;;;;;;5106772;28;20205;-76
2021/03/08 10:11:21;;;;;;;30.33;16.83;;;8.50;89.90;;;;;;5101816;28;20558;-77
2021/03/08 10:13:48;;;;;;;33.05;18.17;;;8.60;89.70;;;;;;5107790;28;20193;-77
2021/03/08 10:16:20;;;;;;;32.90;18.45;;;8.60;89.50;;;;;;5105100;28;20228;-77
2021/03/08 10:18:47;;;;;;;31.48;17.27;;;8.70;89.50;;;;;;5124828;27;20216;-77
2021/03/08 10:21:13;;;;;;;40.20;18.50;;;8.70;89.30;;;;;;5107228;27;20193;-78
2021/03/08 10:23:39;;;;;;;35.03;19.17;;;8.80;88.80;;;;;;5107423;28;20221;-77
2021/03/08 10:26:07;;;;;;;32.97;18.67;;;8.90;88.80;;;;;;5106277;28;20212;-77
2021/03/08 10:28:39;;;;;;;33.55;18.25;;;8.90;88.50;;;;;;5104392;28;20216;-77
2021/03/08 10:31:16;;;;;;;35.25;19.23;;;9.00;88.60;;;;;;5101309;28;20233;-77
2021/03/08 10:33:44;;;;;;;35.80;18.52;;;9.10;88.30;;;;;;5099250;28;20583;-77
2021/03/08 10:36:11;;;;;;;34.47;18.65;;;9.10;88.00;;;;;;5110050;28;20241;-77
2021/03/08 10:38:38;;;;;;;40.78;19.30;;;9.10;87.70;;;;;;5108569;28;20206;-77
2021/03/08 10:41:06;;;;;;;38.72;19.55;;;9.10;87.60;;;;;;5109657;28;20201;-77
2021/03/08 10:43:33;;;;;;;39.58;19.17;;;9.20;87.10;;;;;;5108966;27;20216;-77
2021/03/08 10:46:01;;;;;;;35.55;18.63;;;9.20;86.70;;;;;;5108429;28;20196;-77
2021/03/08 10:48:28;;;;;;;41.60;19.63;;;9.20;86.50;;;;;;5109591;28;20269;-77
2021/03/08 10:50:56;;;;;;;30.95;16.42;;;9.30;86.30;;;;;;5100449;28;20717;-77
2021/03/08 10:53:24;;;;;;;35.47;19.80;;;9.30;85.70;;;;;;5105007;28;20217;-77
2021/03/08 10:55:52;;;;;;;40.33;20.55;;;9.30;85.40;;;;;;5103750;27;20221;-77
2021/03/08 10:58:33;;;;;;;34.38;18.38;;;9.30;85.70;;;;;;5103405;28;20198;-77
2021/03/08 11:01:08;;;;;;;30.23;18.40;;;9.40;85.50;;;;;;5098995;27;20201;-79
2021/03/08 11:03:35;;;;;;;30.65;18.00;;;9.40;84.90;;;;;;5109031;28;20208;-79
2021/03/08 11:06:05;;;;;;;35.78;20.45;;;9.40;84.60;;;;;;5110541;27;20282;-77
2021/03/08 11:08:32;;;;;;;40.95;21.83;;;9.40;84.60;;;;;;5106992;28;20200;-80
2021/03/08 11:10:58;;;;;;;39.30;21.17;;;9.40;84.70;;;;;;5111772;28;20195;-81
2021/03/08 11:13:33;;;;;;;42.28;23.38;;;9.40;84.60;;;;;;5114174;28;20201;-79
2021/03/08 11:16:09;;;;;;;43.72;23.20;;;9.40;84.60;;;;;;5111550;28;20209;-79
2021/03/08 11:18:35;;;;;;;38.78;23.20;;;9.40;84.60;;;;;;5111850;28;20219;-80
2021/03/08 11:21:22;;;;;;;48.30;22.90;;;9.40;84.50;;;;;;5112716;28;20201;-80
2021/03/08 11:23:49;;;;;;;41.10;21.20;;;9.50;84.60;;;;;;5111190;28;20201;-79
2021/03/08 11:26:15;;;;;;;35.15;20.80;;;9.50;84.50;;;;;;5113361;28;20207;-78
2021/03/08 11:28:42;;;;;;;31.77;18.48;;;9.40;84.00;;;;;;5112904;28;20649;-77
2021/03/08 11:31:24;;;;;;;35.17;18.92;;;9.50;84.00;;;;;;5112070;27;20201;-78
2021/03/08 11:33:52;;;;;;;35.13;19.13;;;9.50;83.30;;;;;;5105871;28;20197;-79
2021/03/08 11:36:30;;;;;;;26.70;16.40;;;9.50;83.30;;;;;;5108158;28;20217;-77
2021/03/08 11:39:04;;;;;;;37.00;17.00;;;9.50;83.00;;;;;;5104541;28;20288;-80
2021/03/08 11:41:31;;;;;;;31.33;18.50;;;9.50;82.80;;;;;;5107510;28;20208;-77
2021/03/08 11:43:58;;;;;;;30.60;17.60;;;9.50;82.80;;;;;;5109658;28;20216;-78
2021/03/08 11:46:25;;;;;;;35.63;18.35;;;9.60;83.10;;;;;;5105902;28;20201;-80
2021/03/08 11:49:00;;;;;;;34.70;18.30;;;9.60;82.80;;;;;;5110169;27;20212;-80
2021/03/08 11:51:26;;;;;;;31.50;19.38;;;9.60;82.40;;;;;;5105851;28;20204;-80
2021/03/08 11:53:52;;;;;;;31.60;18.35;;;9.60;82.50;;;;;;5106033;28;20201;-81
2021/03/08 11:56:19;;;;;;;32.83;18.45;;;9.60;82.70;;;;;;5107662;27;20217;-80
2021/03/08 11:58:45;;;;;;;32.10;18.13;;;9.60;83.00;;;;;;5105754;28;20201;-75
2021/03/08 12:01:12;;;;;;;30.33;18.45;;;9.60;82.80;;;;;;5108938;28;20201;-74
2021/03/08 12:03:39;;;;;;;31.27;16.75;;;9.70;82.50;;;;;;5107243;28;20193;-75
2021/03/08 12:06:05;;;;;;;46.50;18.92;;;9.60;81.90;;;;;;5106567;28;20553;-75
2021/03/08 12:08:32;;;;;;;36.65;19.95;;;9.60;81.80;;;;;;5105826;28;20581;-75
2021/03/08 12:10:58;;;;;;;41.13;20.15;;;9.60;81.90;;;;;;5109380;27;20688;-76
2021/03/08 12:13:25;;;;;;;36.63;21.33;;;9.60;81.90;;;;;;5104494;28;20201;-77
2021/03/08 12:15:51;;;;;;;34.10;20.70;;;9.50;82.10;;;;;;5107339;28;20243;-77
2021/03/08 12:18:17;;;;;;;35.35;21.35;;;9.50;82.20;;;;;;5104494;28;20649;-75
2021/03/08 12:20:45;;;;;;;35.90;20.35;;;9.40;82.10;;;;;;5105091;28;20212;-76
2021/03/08 12:23:12;;;;;;;34.78;19.33;;;9.40;82.40;;;;;;5105129;28;20308;-76
2021/03/08 12:25:38;;;;;;;33.88;19.23;;;9.40;82.60;;;;;;5104026;28;20198;-75
2021/03/08 12:28:05;;;;;;;43.92;19.33;;;9.40;82.80;;;;;;5105224;28;20201;-75
2021/03/08 12:30:31;;;;;;;45.85;19.33;;;9.40;82.50;;;;;;5105370;28;20208;-75
2021/03/08 12:32:58;;;;;;;38.67;20.15;;;9.40;82.60;;;;;;5104327;28;20209;-77
2021/03/08 12:35:24;;;;;;;33.85;19.42;;;9.40;82.50;;;;;;5105631;27;20227;-75
2021/03/08 12:37:51;;;;;;;37.40;21.42;;;9.40;82.50;;;;;;5102587;27;20201;-76
2021/03/08 12:40:18;;;;;;;37.53;20.20;;;9.40;82.50;;;;;;5106582;28;20265;-76
2021/03/08 12:42:44;;;;;;;37.70;21.55;;;9.40;82.70;;;;;;5104061;28;20205;-75
2021/03/08 12:45:12;;;;;;;36.17;20.67;;;9.40;82.80;;;;;;5102163;28;20197;-77
2021/03/08 12:47:38;;;;;;;40.55;20.67;;;9.40;82.90;;;;;;5101372;28;20205;-76
2021/03/08 12:50:06;;;;;;;35.05;20.27;;;9.40;82.70;;;;;;5104685;28;20654;-77
2021/03/08 12:52:32;;;;;;;49.13;21.38;;;9.40;82.80;;;;;;5105267;28;20619;-76